Gilwern, United Kingdom
Current Conditions -  °F | °C
As of 10:20 PM on Wednesday 22 Oct 2014 (Local Time) from EGFF Reporting Station
Overcast Overcast  
Wind Chill: 55°   Ceiling: 2200
Heat Index: 55°   Visibility: 6mi
Dew Point: 48°   Wind: 14mph
Humidity: 77%   Direction: 260°W
Pressure: 30.21"   Gusts: NA
Location:  51.82°N, 3.09°W
Report Text: EGFF 222120Z AUTO 26012KT 9999 OVC022 13/09 Q1023
Loading
Personal Weather Stations






























Interactive Weather Map
Tropical Storm Tracking
New forecast layout! Learn more

10-Day Weather Forecast

Advertisements
Track Severe Weather on mobile